sensor_id;sensor_type;location;lat;lon;timestamp;pressure;altitude;pressure_sealevel;temperature;humidity
50518;BME280;37075;44.084;2.962;2024-02-16T00:02:31;97932.84;;;11.62;58.76
50518;BME280;37075;44.084;2.962;2024-02-16T00:05:18;97940.69;;;11.64;58.87
50518;BME280;37075;44.084;2.962;2024-02-16T00:08:04;97937.63;;;11.65;58.51
50518;BME280;37075;44.084;2.962;2024-02-16T00:10:51;97940.81;;;11.67;58.42
50518;BME280;37075;44.084;2.962;2024-02-16T00:13:36;97933.44;;;11.68;58.28
50518;BME280;37075;44.084;2.962;2024-02-16T00:16:23;97932.63;;;11.67;58.23
50518;BME280;37075;44.084;2.962;2024-02-16T00:19:11;97932.28;;;11.69;57.89
50518;BME280;37075;44.084;2.962;2024-02-16T00:21:57;97928.41;;;11.70;58.01
50518;BME280;37075;44.084;2.962;2024-02-16T00:24:43;97918.28;;;11.70;57.92
50518;BME280;37075;44.084;2.962;2024-02-16T00:27:29;97923.75;;;11.70;57.76
50518;BME280;37075;44.084;2.962;2024-02-16T00:30:15;97931.16;;;11.70;57.94
50518;BME280;37075;44.084;2.962;2024-02-16T00:33:03;97922.16;;;11.69;57.67
50518;BME280;37075;44.084;2.962;2024-02-16T00:35:51;97933.09;;;11.69;57.71
50518;BME280;37075;44.084;2.962;2024-02-16T00:38:37;97924.91;;;11.69;57.85
50518;BME280;37075;44.084;2.962;2024-02-16T00:41:23;97926.81;;;11.69;57.89
50518;BME280;37075;44.084;2.962;2024-02-16T00:44:10;97926.03;;;11.68;58.05
50518;BME280;37075;44.084;2.962;2024-02-16T00:46:56;97926.03;;;11.68;58.15
50518;BME280;37075;44.084;2.962;2024-02-16T00:49:43;97931.03;;;11.66;57.98
50518;BME280;37075;44.084;2.962;2024-02-16T00:52:31;97925.91;;;11.65;57.83
50518;BME280;37075;44.084;2.962;2024-02-16T00:55:17;97928.97;;;11.63;58.13
50518;BME280;37075;44.084;2.962;2024-02-16T00:58:03;97924.97;;;11.61;58.12
50518;BME280;37075;44.084;2.962;2024-02-16T01:00:49;97926.91;;;11.60;58.04
50518;BME280;37075;44.084;2.962;2024-02-16T01:03:34;97928.03;;;11.59;57.97
50518;BME280;37075;44.084;2.962;2024-02-16T01:06:22;97926.91;;;11.60;57.89
50518;BME280;37075;44.084;2.962;2024-02-16T01:09:09;97932.72;;;11.59;57.97
50518;BME280;37075;44.084;2.962;2024-02-16T01:11:57;97931.91;;;11.58;58.14
50518;BME280;37075;44.084;2.962;2024-02-16T01:14:43;97944.78;;;11.58;57.97
50518;BME280;37075;44.084;2.962;2024-02-16T01:17:29;97939.66;;;11.56;57.99
50518;BME280;37075;44.084;2.962;2024-02-16T01:20:17;97941.91;;;11.54;58.01
50518;BME280;37075;44.084;2.962;2024-02-16T01:23:05;97934.06;;;11.53;58.07
50518;BME280;37075;44.084;2.962;2024-02-16T01:25:52;97933.25;;;11.52;58.04
50518;BME280;37075;44.084;2.962;2024-02-16T01:28:38;97934.38;;;11.51;58.16
50518;BME280;37075;44.084;2.962;2024-02-16T01:31:24;97941.78;;;11.51;58.38
50518;BME280;37075;44.084;2.962;2024-02-16T01:34:10;97938.25;;;11.50;58.61
50518;BME280;37075;44.084;2.962;2024-02-16T01:36:56;97936.31;;;11.51;58.96
50518;BME280;37075;44.084;2.962;2024-02-16T01:39:43;97939.53;;;11.53;59.17
50518;BME280;37075;44.084;2.962;2024-02-16T01:42:31;97943.84;;;11.54;59.31
50518;BME280;37075;44.084;2.962;2024-02-16T01:45:17;97952.97;;;11.58;59.56
50518;BME280;37075;44.084;2.962;2024-02-16T01:48:04;97954.22;;;11.60;59.58
50518;BME280;37075;44.084;2.962;2024-02-16T01:50:50;97960.97;;;11.63;59.64
50518;BME280;37075;44.084;2.962;2024-02-16T01:53:36;97958.69;;;11.65;59.94
50518;BME280;37075;44.084;2.962;2024-02-16T01:56:23;97950.94;;;11.67;59.96
50518;BME280;37075;44.084;2.962;2024-02-16T01:59:13;97954.16;;;11.69;59.97
50518;BME280;37075;44.084;2.962;2024-02-16T02:01:59;97958.16;;;11.71;60.26
50518;BME280;37075;44.084;2.962;2024-02-16T02:04:45;97959.44;;;11.74;60.47
50518;BME280;37075;44.084;2.962;2024-02-16T02:07:31;97952.03;;;11.74;60.34
50518;BME280;37075;44.084;2.962;2024-02-16T02:10:17;97959.09;;;11.76;60.65
50518;BME280;37075;44.084;2.962;2024-02-16T02:13:04;97956.03;;;11.77;60.69
50518;BME280;37075;44.084;2.962;2024-02-16T02:15:51;97960.06;;;11.80;60.81
50518;BME280;37075;44.084;2.962;2024-02-16T02:18:38;97959.72;;;11.81;60.82
50518;BME280;37075;44.084;2.962;2024-02-16T02:21:24;97965.63;;;11.83;60.96
50518;BME280;37075;44.084;2.962;2024-02-16T02:24:12;97971.09;;;11.83;61.07
50518;BME280;37075;44.084;2.962;2024-02-16T02:26:57;97964.84;;;11.83;61.28
50518;BME280;37075;44.084;2.962;2024-02-16T02:29:43;97958.56;;;11.82;61.26
50518;BME280;37075;44.084;2.962;2024-02-16T02:32:29;97953.91;;;11.83;61.50
50518;BME280;37075;44.084;2.962;2024-02-16T02:35:16;97954.72;;;11.83;61.41
50518;BME280;37075;44.084;2.962;2024-02-16T02:38:02;97954.72;;;11.83;61.49
50518;BME280;37075;44.084;2.962;2024-02-16T02:40:50;97941.03;;;11.83;61.75
50518;BME280;37075;44.084;2.962;2024-02-16T02:43:36;97949.25;;;11.83;61.79
50518;BME280;37075;44.084;2.962;2024-02-16T02:46:22;97948.44;;;11.83;61.99
50518;BME280;37075;44.084;2.962;2024-02-16T02:49:09;97955.03;;;11.82;61.90
50518;BME280;37075;44.084;2.962;2024-02-16T02:51:56;97955.84;;;11.82;62.13
50518;BME280;37075;44.084;2.962;2024-02-16T02:54:42;97953.91;;;11.83;62.13
50518;BME280;37075;44.084;2.962;2024-02-16T02:57:29;97947.66;;;11.82;62.14
50518;BME280;37075;44.084;2.962;2024-02-16T03:00:15;97951.50;;;11.81;62.28
50518;BME280;37075;44.084;2.962;2024-02-16T03:03:02;97941.38;;;11.82;62.24
50518;BME280;37075;44.084;2.962;2024-02-16T03:05:49;97946.84;;;11.82;62.38
50518;BME280;37075;44.084;2.962;2024-02-16T03:08:35;97950.72;;;11.81;62.69
50518;BME280;37075;44.084;2.962;2024-02-16T03:11:21;97956.19;;;11.81;62.63
50518;BME280;37075;44.084;2.962;2024-02-16T03:14:08;97949.56;;;11.82;62.92
50518;BME280;37075;44.084;2.962;2024-02-16T03:16:54;97948.44;;;11.83;63.13
50518;BME280;37075;44.084;2.962;2024-02-16T03:19:40;97946.84;;;11.82;63.26
50518;BME280;37075;44.084;2.962;2024-02-16T03:22:26;97942.97;;;11.83;63.19
50518;BME280;37075;44.084;2.962;2024-02-16T03:25:12;97945.38;;;11.84;63.45
50518;BME280;37075;44.084;2.962;2024-02-16T03:27:58;97950.50;;;11.86;63.36
50518;BME280;37075;44.084;2.962;2024-02-16T03:30:46;97948.56;;;11.86;63.43
50518;BME280;37075;44.084;2.962;2024-02-16T03:33:33;97958.03;;;11.89;63.38
50518;BME280;37075;44.084;2.962;2024-02-16T03:36:19;97958.47;;;11.91;63.36
50518;BME280;37075;44.084;2.962;2024-02-16T03:39:05;97957.34;;;11.92;63.47
50518;BME280;37075;44.084;2.962;2024-02-16T03:41:53;97963.63;;;11.92;63.47
50518;BME280;37075;44.084;2.962;2024-02-16T03:44:39;97962.47;;;11.93;63.63
50518;BME280;37075;44.084;2.962;2024-02-16T03:47:26;97964.41;;;11.93;63.65
50518;BME280;37075;44.084;2.962;2024-02-16T03:50:12;97969.88;;;11.93;63.62
50518;BME280;37075;44.084;2.962;2024-02-16T03:52:59;97965.56;;;11.92;63.50
50518;BME280;37075;44.084;2.962;2024-02-16T03:55:45;97969.88;;;11.93;63.63
50518;BME280;37075;44.084;2.962;2024-02-16T03:58:31;97969.88;;;11.93;63.62
50518;BME280;37075;44.084;2.962;2024-02-16T04:01:17;97976.81;;;11.90;63.82
50518;BME280;37075;44.084;2.962;2024-02-16T04:04:05;97982.28;;;11.90;63.71
50518;BME280;37075;44.084;2.962;2024-02-16T04:06:50;97974.44;;;11.89;63.81
50518;BME280;37075;44.084;2.962;2024-02-16T04:09:36;97974.44;;;11.89;63.92
50518;BME280;37075;44.084;2.962;2024-02-16T04:12:22;97981.03;;;11.88;63.95
50518;BME280;37075;44.084;2.962;2024-02-16T04:15:08;97986.50;;;11.88;63.95
50518;BME280;37075;44.084;2.962;2024-02-16T04:17:54;97987.97;;;11.85;64.22
50518;BME280;37075;44.084;2.962;2024-02-16T04:20:42;97997.63;;;11.83;64.24
50518;BME280;37075;44.084;2.962;2024-02-16T04:23:28;97997.50;;;11.79;64.37
50518;BME280;37075;44.084;2.962;2024-02-16T04:26:14;98002.19;;;11.70;64.70
50518;BME280;37075;44.084;2.962;2024-02-16T04:28:59;98010.25;;;11.66;64.85
50518;BME280;37075;44.084;2.962;2024-02-16T04:31:45;97999.34;;;11.66;64.81
50518;BME280;37075;44.084;2.962;2024-02-16T04:34:31;98004.00;;;11.66;64.88
50518;BME280;37075;44.084;2.962;2024-02-16T04:37:18;98001.41;;;11.69;64.85
50518;BME280;37075;44.084;2.962;2024-02-16T04:40:05;98001.09;;;11.71;64.67
50518;BME280;37075;44.084;2.962;2024-02-16T04:42:52;97999.47;;;11.70;64.85
50518;BME280;37075;44.084;2.962;2024-02-16T04:45:38;98000.59;;;11.69;64.87
50518;BME280;37075;44.084;2.962;2024-02-16T04:48:24;98006.84;;;11.69;64.85
50518;BME280;37075;44.084;2.962;2024-02-16T04:51:10;98005.25;;;11.68;64.93
50518;BME280;37075;44.084;2.962;2024-02-16T04:53:58;98009.59;;;11.69;64.97
50518;BME280;37075;44.084;2.962;2024-02-16T04:56:44;98013.13;;;11.70;65.05
50518;BME280;37075;44.084;2.962;2024-02-16T04:59:29;98009.13;;;11.67;64.90
50518;BME280;37075;44.084;2.962;2024-02-16T05:02:16;98016.53;;;11.67;64.95
50518;BME280;37075;44.084;2.962;2024-02-16T05:05:01;98004.47;;;11.68;65.12
50518;BME280;37075;44.084;2.962;2024-02-16T05:07:49;98006.41;;;11.67;64.90
50518;BME280;37075;44.084;2.962;2024-02-16T05:10:37;98005.25;;;11.68;64.90
50518;BME280;37075;44.084;2.962;2024-02-16T05:13:23;98002.06;;;11.66;64.99
50518;BME280;37075;44.084;2.962;2024-02-16T05:16:11;98002.06;;;11.66;64.83
50518;BME280;37075;44.084;2.962;2024-02-16T05:18:57;98007.53;;;11.66;64.87
50518;BME280;37075;44.084;2.962;2024-02-16T05:21:43;97996.94;;;11.65;64.78
50518;BME280;37075;44.084;2.962;2024-02-16T05:24:29;97996.13;;;11.64;64.77
50518;BME280;37075;44.084;2.962;2024-02-16T05:27:16;98006.28;;;11.64;64.95
50518;BME280;37075;44.084;2.962;2024-02-16T05:30:03;98000.00;;;11.63;65.06
50518;BME280;37075;44.084;2.962;2024-02-16T05:32:52;97995.34;;;11.64;64.96
50518;BME280;37075;44.084;2.962;2024-02-16T05:35:43;97994.53;;;11.63;65.03
50518;BME280;37075;44.084;2.962;2024-02-16T05:38:34;97992.94;;;11.62;65.23
50518;BME280;37075;44.084;2.962;2024-02-16T05:41:25;97998.75;;;11.61;65.09
50518;BME280;37075;44.084;2.962;2024-02-16T05:44:12;98000.22;;;11.58;65.25
50518;BME280;37075;44.084;2.962;2024-02-16T05:46:59;98006.34;;;11.55;65.45
50518;BME280;37075;44.084;2.962;2024-02-16T05:49:45;98012.00;;;11.50;65.76
50518;BME280;37075;44.084;2.962;2024-02-16T05:52:31;98013.31;;;11.44;66.14
50518;BME280;37075;44.084;2.962;2024-02-16T05:55:17;98017.56;;;11.33;66.34
50518;BME280;37075;44.084;2.962;2024-02-16T05:58:04;98013.56;;;11.30;66.46
50518;BME280;37075;44.084;2.962;2024-02-16T06:00:52;98005.53;;;11.34;66.33
50518;BME280;37075;44.084;2.962;2024-02-16T06:03:40;98000.84;;;11.34;66.28
50518;BME280;37075;44.084;2.962;2024-02-16T06:06:27;98004.84;;;11.37;66.26
50518;BME280;37075;44.084;2.962;2024-02-16T06:09:12;98011.59;;;11.39;66.06
50518;BME280;37075;44.084;2.962;2024-02-16T06:12:00;98012.38;;;11.40;66.08
50518;BME280;37075;44.084;2.962;2024-02-16T06:14:47;98008.84;;;11.39;66.15
50518;BME280;37075;44.084;2.962;2024-02-16T06:17:35;98017.84;;;11.40;66.31
50518;BME280;37075;44.084;2.962;2024-02-16T06:20:22;98020.56;;;11.40;66.27
50518;BME280;37075;44.084;2.962;2024-02-16T06:23:08;98016.25;;;11.39;66.12
50518;BME280;37075;44.084;2.962;2024-02-16T06:25:54;98022.16;;;11.41;66.07
50518;BME280;37075;44.084;2.962;2024-02-16T06:28:40;98024.09;;;11.40;65.97
50518;BME280;37075;44.084;2.962;2024-02-16T06:31:25;98018.97;;;11.39;66.08
50518;BME280;37075;44.084;2.962;2024-02-16T06:34:13;98013.19;;;11.40;65.98
50518;BME280;37075;44.084;2.962;2024-02-16T06:36:59;98023.31;;;11.40;66.15
50518;BME280;37075;44.084;2.962;2024-02-16T06:39:45;98027.97;;;11.39;66.01
50518;BME280;37075;44.084;2.962;2024-02-16T06:42:31;98023.31;;;11.40;66.01
50518;BME280;37075;44.084;2.962;2024-02-16T06:45:18;98023.31;;;11.40;66.11
50518;BME280;37075;44.084;2.962;2024-02-16T06:48:06;98033.75;;;11.38;66.06
50518;BME280;37075;44.084;2.962;2024-02-16T06:50:53;98034.56;;;11.38;66.07
50518;BME280;37075;44.084;2.962;2024-02-16T06:53:39;98040.81;;;11.39;66.29
50518;BME280;37075;44.084;2.962;2024-02-16T06:56:26;98036.16;;;11.39;66.16
50518;BME280;37075;44.084;2.962;2024-02-16T06:59:12;98046.63;;;11.37;66.18
50518;BME280;37075;44.084;2.962;2024-02-16T07:01:58;98043.09;;;11.37;66.18
50518;BME280;37075;44.084;2.962;2024-02-16T07:04:44;98054.00;;;11.37;66.35
50518;BME280;37075;44.084;2.962;2024-02-16T07:07:31;98050.81;;;11.35;66.53
50518;BME280;37075;44.084;2.962;2024-02-16T07:10:20;98052.41;;;11.36;66.56
50518;BME280;37075;44.084;2.962;2024-02-16T07:13:06;98056.75;;;11.37;66.49
50518;BME280;37075;44.084;2.962;2024-02-16T07:15:52;98060.28;;;11.37;66.47
50518;BME280;37075;44.084;2.962;2024-02-16T07:18:38;98072.66;;;11.35;66.71
50518;BME280;37075;44.084;2.962;2024-02-16T07:21:24;98075.72;;;11.33;66.66
50518;BME280;37075;44.084;2.962;2024-02-16T07:24:12;98077.66;;;11.33;66.74
50518;BME280;37075;44.084;2.962;2024-02-16T07:27:00;98077.66;;;11.33;66.53
50518;BME280;37075;44.084;2.962;2024-02-16T07:29:46;98078.44;;;11.33;66.70
50518;BME280;37075;44.084;2.962;2024-02-16T07:32:40;98081.97;;;11.34;66.66
50518;BME280;37075;44.084;2.962;2024-02-16T07:35:25;98079.25;;;11.34;66.59
50518;BME280;37075;44.084;2.962;2024-02-16T07:38:11;98090.19;;;11.34;66.74
50518;BME280;37075;44.084;2.962;2024-02-16T07:40:57;98090.19;;;11.34;66.69
50518;BME280;37075;44.084;2.962;2024-02-16T07:43:44;98090.19;;;11.34;66.68
50518;BME280;37075;44.084;2.962;2024-02-16T07:46:30;98099.16;;;11.34;66.57
50518;BME280;37075;44.084;2.962;2024-02-16T07:49:17;98096.75;;;11.33;66.68
50518;BME280;37075;44.084;2.962;2024-02-16T07:52:03;98104.97;;;11.33;66.69
50518;BME280;37075;44.084;2.962;2024-02-16T07:54:49;98109.28;;;11.34;66.99
50518;BME280;37075;44.084;2.962;2024-02-16T07:57:35;98112.34;;;11.32;67.09
50518;BME280;37075;44.084;2.962;2024-02-16T08:00:22;98108.16;;;11.35;67.11
50518;BME280;37075;44.084;2.962;2024-02-16T08:03:08;98116.81;;;11.37;67.28
50518;BME280;37075;44.084;2.962;2024-02-16T08:05:56;98118.41;;;11.38;67.50
50518;BME280;37075;44.084;2.962;2024-02-16T08:08:41;98115.03;;;11.41;67.51
50518;BME280;37075;44.084;2.962;2024-02-16T08:11:27;98122.56;;;11.44;67.64
50518;BME280;37075;44.084;2.962;2024-02-16T08:14:13;98126.59;;;11.47;67.57
50518;BME280;37075;44.084;2.962;2024-02-16T08:16:59;98134.59;;;11.52;67.59
50518;BME280;37075;44.084;2.962;2024-02-16T08:19:51;98130.41;;;11.54;67.65
50518;BME280;37075;44.084;2.962;2024-02-16T08:22:40;98128.59;;;11.58;67.89
50518;BME280;37075;44.084;2.962;2024-02-16T08:25:26;98136.13;;;11.61;67.59
50518;BME280;37075;44.084;2.962;2024-02-16T08:28:12;98135.00;;;11.62;67.65
50518;BME280;37075;44.084;2.962;2024-02-16T08:30:59;98142.88;;;11.64;67.64
50518;BME280;37075;44.084;2.962;2024-02-16T08:33:44;98140.59;;;11.66;67.45
50518;BME280;37075;44.084;2.962;2024-02-16T08:36:31;98145.41;;;11.69;67.37
50518;BME280;37075;44.084;2.962;2024-02-16T08:39:20;98140.44;;;11.71;67.49
50518;BME280;37075;44.084;2.962;2024-02-16T08:42:09;98143.31;;;11.74;67.45
50518;BME280;37075;44.084;2.962;2024-02-16T08:44:56;98142.34;;;11.79;67.50
50518;BME280;37075;44.084;2.962;2024-02-16T08:47:44;98143.63;;;11.82;67.38
50518;BME280;37075;44.084;2.962;2024-02-16T08:50:31;98145.34;;;11.86;67.55
50518;BME280;37075;44.084;2.962;2024-02-16T08:53:16;98151.75;;;11.90;67.40
50518;BME280;37075;44.084;2.962;2024-02-16T08:56:09;98148.69;;;11.92;67.33
50518;BME280;37075;44.084;2.962;2024-02-16T08:58:55;98150.41;;;11.96;67.26
50518;BME280;37075;44.084;2.962;2024-02-16T09:01:43;98152.50;;;11.99;67.24
50518;BME280;37075;44.084;2.962;2024-02-16T09:04:29;98154.91;;;12.01;67.30
50518;BME280;37075;44.084;2.962;2024-02-16T09:07:15;98152.31;;;12.04;67.25
50518;BME280;37075;44.084;2.962;2024-02-16T09:10:01;98159.50;;;12.09;67.30
50518;BME280;37075;44.084;2.962;2024-02-16T09:12:50;98163.50;;;12.12;67.31
50518;BME280;37075;44.084;2.962;2024-02-16T09:15:36;98160.56;;;12.17;67.48
50518;BME280;37075;44.084;2.962;2024-02-16T09:18:23;98170.03;;;12.19;67.35
50518;BME280;37075;44.084;2.962;2024-02-16T09:21:08;98167.44;;;12.23;67.32
50518;BME280;37075;44.084;2.962;2024-02-16T09:23:55;98164.19;;;12.29;67.32
50518;BME280;37075;44.084;2.962;2024-02-16T09:26:43;98173.31;;;12.33;67.30
50518;BME280;37075;44.084;2.962;2024-02-16T09:29:31;98169.91;;;12.37;67.35
50518;BME280;37075;44.084;2.962;2024-02-16T09:32:18;98172.44;;;12.42;67.27
50518;BME280;37075;44.084;2.962;2024-02-16T09:35:04;98176.00;;;12.42;67.14
50518;BME280;37075;44.084;2.962;2024-02-16T09:37:50;98165.97;;;12.46;67.18
50518;BME280;37075;44.084;2.962;2024-02-16T09:40:37;98168.66;;;12.55;67.27
50518;BME280;37075;44.084;2.962;2024-02-16T09:43:27;98178.72;;;12.63;67.43
50518;BME280;37075;44.084;2.962;2024-02-16T09:46:15;98187.63;;;12.72;67.30
50518;BME280;37075;44.084;2.962;2024-02-16T09:49:04;98176.97;;;12.79;67.10
50518;BME280;37075;44.084;2.962;2024-02-16T09:51:50;98184.97;;;12.84;66.99
50518;BME280;37075;44.084;2.962;2024-02-16T09:54:36;98187.03;;;12.87;66.74
50518;BME280;37075;44.084;2.962;2024-02-16T09:57:23;98186.34;;;12.90;66.54
50518;BME280;37075;44.084;2.962;2024-02-16T10:00:10;98185.22;;;12.91;66.43
50518;BME280;37075;44.084;2.962;2024-02-16T10:03:00;98186.47;;;12.94;66.32
50518;BME280;37075;44.084;2.962;2024-02-16T10:05:46;98186.13;;;12.95;66.18
50518;BME280;37075;44.084;2.962;2024-02-16T10:08:32;98187.06;;;13.00;66.28
50518;BME280;37075;44.084;2.962;2024-02-16T10:11:20;98186.88;;;13.05;66.38
50518;BME280;37075;44.084;2.962;2024-02-16T10:14:07;98189.84;;;13.12;66.34
50518;BME280;37075;44.084;2.962;2024-02-16T10:16:59;98194.00;;;13.18;66.41
50518;BME280;37075;44.084;2.962;2024-02-16T10:19:56;98194.22;;;13.25;66.17
50518;BME280;37075;44.084;2.962;2024-02-16T10:22:42;98201.00;;;13.27;66.10
50518;BME280;37075;44.084;2.962;2024-02-16T10:25:28;98201.09;;;13.31;65.86
50518;BME280;37075;44.084;2.962;2024-02-16T10:28:14;98203.50;;;13.33;65.85
50518;BME280;37075;44.084;2.962;2024-02-16T10:31:02;98201.69;;;13.37;65.71
50518;BME280;37075;44.084;2.962;2024-02-16T10:33:49;98205.69;;;13.39;65.52
50518;BME280;37075;44.084;2.962;2024-02-16T10:36:38;98212.31;;;13.38;65.60
50518;BME280;37075;44.084;2.962;2024-02-16T10:39:26;98213.91;;;13.39;65.39
50518;BME280;37075;44.084;2.962;2024-02-16T10:42:14;98211.63;;;13.41;65.08
50518;BME280;37075;44.084;2.962;2024-02-16T10:45:01;98217.56;;;13.43;65.21
50518;BME280;37075;44.084;2.962;2024-02-16T10:47:47;98221.91;;;13.44;65.26
50518;BME280;37075;44.084;2.962;2024-02-16T10:50:34;98219.97;;;13.45;65.08
50518;BME280;37075;44.084;2.962;2024-02-16T10:53:25;98218.34;;;13.44;65.07
50518;BME280;37075;44.084;2.962;2024-02-16T10:56:13;98223.03;;;13.43;65.13
50518;BME280;37075;44.084;2.962;2024-02-16T10:59:01;98228.50;;;13.43;65.13
50518;BME280;37075;44.084;2.962;2024-02-16T11:01:59;98226.56;;;13.44;64.89
50518;BME280;37075;44.084;2.962;2024-02-16T11:04:46;98223.03;;;13.43;64.93
50518;BME280;37075;44.084;2.962;2024-02-16T11:07:33;98220.75;;;13.45;65.04
50518;BME280;37075;44.084;2.962;2024-02-16T11:10:21;98222.00;;;13.48;65.03
50518;BME280;37075;44.084;2.962;2024-02-16T11:13:07;98226.00;;;13.50;64.99
50518;BME280;37075;44.084;2.962;2024-02-16T11:15:57;98219.38;;;13.51;64.89
50518;BME280;37075;44.084;2.962;2024-02-16T11:18:45;98214.06;;;13.55;64.77
50518;BME280;37075;44.084;2.962;2024-02-16T11:21:33;98216.56;;;13.60;64.74
50518;BME280;37075;44.084;2.962;2024-02-16T11:24:19;98217.94;;;13.66;64.78
50518;BME280;37075;44.084;2.962;2024-02-16T11:27:10;98207.19;;;13.73;65.18
50518;BME280;37075;44.084;2.962;2024-02-16T11:29:58;98212.34;;;13.87;65.55
50518;BME280;37075;44.084;2.962;2024-02-16T11:32:46;98200.00;;;14.05;65.54
50518;BME280;37075;44.084;2.962;2024-02-16T11:35:32;98193.56;;;14.26;65.48
50518;BME280;37075;44.084;2.962;2024-02-16T11:38:18;98196.63;;;14.48;65.57
50518;BME280;37075;44.084;2.962;2024-02-16T11:41:05;98194.16;;;14.71;65.34
50518;BME280;37075;44.084;2.962;2024-02-16T11:44:00;98194.75;;;14.93;65.00
50518;BME280;37075;44.084;2.962;2024-02-16T11:46:46;98195.69;;;15.13;64.71
50518;BME280;37075;44.084;2.962;2024-02-16T11:49:32;98187.81;;;15.27;63.99
50518;BME280;37075;44.084;2.962;2024-02-16T11:52:19;98189.81;;;15.42;63.60
50518;BME280;37075;44.084;2.962;2024-02-16T11:55:08;98192.91;;;15.56;63.61
50518;BME280;37075;44.084;2.962;2024-02-16T11:57:54;98189.75;;;15.70;63.11
50518;BME280;37075;44.084;2.962;2024-02-16T12:00:43;98184.50;;;15.81;62.74
50518;BME280;37075;44.084;2.962;2024-02-16T12:03:29;98192.22;;;15.91;62.37
50518;BME280;37075;44.084;2.962;2024-02-16T12:06:19;98192.47;;;16.01;61.85
50518;BME280;37075;44.084;2.962;2024-02-16T12:09:06;98196.53;;;16.08;61.38
50518;BME280;37075;44.084;2.962;2024-02-16T12:11:54;98190.31;;;16.11;61.14
50518;BME280;37075;44.084;2.962;2024-02-16T12:14:40;98185.78;;;16.02;60.34
50518;BME280;37075;44.084;2.962;2024-02-16T12:17:28;98182.81;;;15.92;59.87
50518;BME280;37075;44.084;2.962;2024-02-16T12:20:14;98185.00;;;15.86;59.67
50518;BME280;37075;44.084;2.962;2024-02-16T12:23:10;98182.38;;;15.74;59.44
50518;BME280;37075;44.084;2.962;2024-02-16T12:25:56;98186.91;;;15.66;57.95
50518;BME280;37075;44.084;2.962;2024-02-16T12:28:43;98183.41;;;15.54;58.17
50518;BME280;37075;44.084;2.962;2024-02-16T12:31:30;98185.38;;;15.37;58.09
50518;BME280;37075;44.084;2.962;2024-02-16T12:34:17;98181.09;;;15.24;58.45
50518;BME280;37075;44.084;2.962;2024-02-16T12:37:04;98187.94;;;15.02;59.09
50518;BME280;37075;44.084;2.962;2024-02-16T12:39:52;98184.13;;;14.91;59.50
50518;BME280;37075;44.084;2.962;2024-02-16T12:42:37;98182.56;;;14.78;59.84
50518;BME280;37075;44.084;2.962;2024-02-16T12:45:23;98182.91;;;14.76;60.26
50518;BME280;37075;44.084;2.962;2024-02-16T12:48:09;98187.63;;;14.76;60.27
50518;BME280;37075;44.084;2.962;2024-02-16T12:50:59;98183.97;;;14.72;60.42
50518;BME280;37075;44.084;2.962;2024-02-16T12:53:45;98192.13;;;14.68;60.60
50518;BME280;37075;44.084;2.962;2024-02-16T12:56:32;98180.59;;;14.63;60.73
50518;BME280;37075;44.084;2.962;2024-02-16T12:59:18;98175.91;;;14.63;60.60
50518;BME280;37075;44.084;2.962;2024-02-16T13:02:04;98182.31;;;14.55;60.89
50518;BME280;37075;44.084;2.962;2024-02-16T13:04:50;98184.41;;;14.46;61.27
50518;BME280;37075;44.084;2.962;2024-02-16T13:07:39;98184.97;;;14.39;61.55
50518;BME280;37075;44.084;2.962;2024-02-16T13:10:26;98187.97;;;14.34;61.68
50518;BME280;37075;44.084;2.962;2024-02-16T13:13:13;98181.88;;;14.29;61.96
50518;BME280;37075;44.084;2.962;2024-02-16T13:15:59;98180.44;;;14.31;62.00
50518;BME280;37075;44.084;2.962;2024-02-16T13:18:45;98175.13;;;14.38;62.01
50518;BME280;37075;44.084;2.962;2024-02-16T13:21:30;98176.16;;;14.46;61.95
50518;BME280;37075;44.084;2.962;2024-02-16T13:24:18;98164.69;;;14.56;62.08
50518;BME280;37075;44.084;2.962;2024-02-16T13:27:04;98179.28;;;14.72;62.34
50518;BME280;37075;44.084;2.962;2024-02-16T13:29:51;98171.09;;;14.88;61.95
50518;BME280;37075;44.084;2.962;2024-02-16T13:32:38;98174.56;;;15.01;61.80
50518;BME280;37075;44.084;2.962;2024-02-16T13:35:25;98171.78;;;15.13;61.57
50518;BME280;37075;44.084;2.962;2024-02-16T13:38:13;98176.38;;;15.25;61.35
50518;BME280;37075;44.084;2.962;2024-02-16T13:41:01;98172.31;;;15.34;61.15
50518;BME280;37075;44.084;2.962;2024-02-16T13:43:50;98180.41;;;15.43;60.87
50518;BME280;37075;44.084;2.962;2024-02-16T13:46:36;98169.22;;;15.52;60.81
50518;BME280;37075;44.084;2.962;2024-02-16T13:49:22;98182.94;;;15.64;60.79
50518;BME280;37075;44.084;2.962;2024-02-16T13:52:09;98173.69;;;15.72;60.47
50518;BME280;37075;44.084;2.962;2024-02-16T13:54:55;98173.13;;;15.82;60.62
50518;BME280;37075;44.084;2.962;2024-02-16T13:57:43;98179.19;;;15.88;59.90
50518;BME280;37075;44.084;2.962;2024-02-16T14:00:29;98179.97;;;15.88;58.16
50518;BME280;37075;44.084;2.962;2024-02-16T14:03:16;98178.47;;;15.91;58.02
50518;BME280;37075;44.084;2.962;2024-02-16T14:06:04;98176.94;;;15.93;57.96
50518;BME280;37075;44.084;2.962;2024-02-16T14:08:51;98176.16;;;15.93;57.04
50518;BME280;37075;44.084;2.962;2024-02-16T14:11:37;98181.72;;;15.96;57.37
50518;BME280;37075;44.084;2.962;2024-02-16T14:14:27;98180.56;;;15.97;57.06
50518;BME280;37075;44.084;2.962;2024-02-16T14:17:14;98187.22;;;15.96;56.24
50518;BME280;37075;44.084;2.962;2024-02-16T14:20:00;98190.88;;;16.00;56.59
50518;BME280;37075;44.084;2.962;2024-02-16T14:22:46;98196.44;;;16.04;55.98
50518;BME280;37075;44.084;2.962;2024-02-16T14:25:32;98195.28;;;16.05;55.89
50518;BME280;37075;44.084;2.962;2024-02-16T14:28:19;98201.50;;;15.86;54.88
50518;BME280;37075;44.084;2.962;2024-02-16T14:31:07;98207.03;;;15.70;53.61
50518;BME280;37075;44.084;2.962;2024-02-16T14:33:53;98207.25;;;15.50;53.34
50518;BME280;37075;44.084;2.962;2024-02-16T14:36:39;98205.94;;;15.43;54.14
50518;BME280;37075;44.084;2.962;2024-02-16T14:39:25;98206.19;;;15.38;54.15
50518;BME280;37075;44.084;2.962;2024-02-16T14:42:11;98221.41;;;15.20;53.53
50518;BME280;37075;44.084;2.962;2024-02-16T14:44:57;98212.81;;;15.22;53.97